sensor_id;sensor_type;location;lat;lon;timestamp;P1;durP1;ratioP1;P2;durP2;ratioP2
8488;SDS011;4281;45.772;12.852;2022-12-20T00:00:54;27.50;;;21.20;;
8488;SDS011;4281;45.772;12.852;2022-12-20T00:03:22;23.77;;;18.27;;
8488;SDS011;4281;45.772;12.852;2022-12-20T00:05:50;25.07;;;20.13;;
8488;SDS011;4281;45.772;12.852;2022-12-20T00:08:19;23.10;;;18.33;;
8488;SDS011;4281;45.772;12.852;2022-12-20T00:10:47;21.40;;;17.60;;
8488;SDS011;4281;45.772;12.852;2022-12-20T00:13:15;24.17;;;19.83;;
8488;SDS011;4281;45.772;12.852;2022-12-20T00:15:42;23.07;;;19.23;;
8488;SDS011;4281;45.772;12.852;2022-12-20T00:18:12;23.70;;;20.53;;
8488;SDS011;4281;45.772;12.852;2022-12-20T00:20:39;25.70;;;19.63;;
8488;SDS011;4281;45.772;12.852;2022-12-20T00:23:07;22.47;;;18.43;;
8488;SDS011;4281;45.772;12.852;2022-12-20T00:25:35;22.03;;;18.33;;
8488;SDS011;4281;45.772;12.852;2022-12-20T00:28:03;22.77;;;18.50;;
8488;SDS011;4281;45.772;12.852;2022-12-20T00:30:31;22.73;;;17.63;;
8488;SDS011;4281;45.772;12.852;2022-12-20T00:32:58;22.17;;;18.27;;
8488;SDS011;4281;45.772;12.852;2022-12-20T00:35:27;20.77;;;17.23;;
8488;SDS011;4281;45.772;12.852;2022-12-20T00:37:55;20.73;;;16.70;;
8488;SDS011;4281;45.772;12.852;2022-12-20T00:40:23;21.53;;;17.93;;
8488;SDS011;4281;45.772;12.852;2022-12-20T00:42:51;23.37;;;20.10;;
8488;SDS011;4281;45.772;12.852;2022-12-20T00:45:19;21.20;;;17.83;;
8488;SDS011;4281;45.772;12.852;2022-12-20T00:47:46;23.20;;;18.03;;
8488;SDS011;4281;45.772;12.852;2022-12-20T00:50:14;21.50;;;17.33;;
8488;SDS011;4281;45.772;12.852;2022-12-20T00:52:43;22.00;;;17.93;;
8488;SDS011;4281;45.772;12.852;2022-12-20T00:55:11;22.63;;;17.63;;
8488;SDS011;4281;45.772;12.852;2022-12-20T00:57:39;20.10;;;16.63;;
8488;SDS011;4281;45.772;12.852;2022-12-20T01:00:07;20.10;;;16.87;;
8488;SDS011;4281;45.772;12.852;2022-12-20T01:02:36;20.27;;;16.20;;
8488;SDS011;4281;45.772;12.852;2022-12-20T01:05:04;19.27;;;15.23;;
8488;SDS011;4281;45.772;12.852;2022-12-20T01:07:32;18.93;;;15.70;;
8488;SDS011;4281;45.772;12.852;2022-12-20T01:10:02;19.50;;;15.93;;
8488;SDS011;4281;45.772;12.852;2022-12-20T01:12:30;19.00;;;15.83;;
8488;SDS011;4281;45.772;12.852;2022-12-20T01:14:57;19.57;;;15.70;;
8488;SDS011;4281;45.772;12.852;2022-12-20T01:17:25;20.43;;;16.77;;
8488;SDS011;4281;45.772;12.852;2022-12-20T01:19:53;20.70;;;16.80;;
8488;SDS011;4281;45.772;12.852;2022-12-20T01:22:20;20.57;;;15.77;;
8488;SDS011;4281;45.772;12.852;2022-12-20T01:24:48;19.63;;;17.13;;
8488;SDS011;4281;45.772;12.852;2022-12-20T01:27:17;19.77;;;17.27;;
8488;SDS011;4281;45.772;12.852;2022-12-20T01:29:45;21.67;;;16.67;;
8488;SDS011;4281;45.772;12.852;2022-12-20T01:32:13;19.60;;;16.00;;
8488;SDS011;4281;45.772;12.852;2022-12-20T01:34:40;21.33;;;16.77;;
8488;SDS011;4281;45.772;12.852;2022-12-20T01:37:08;17.93;;;14.83;;
8488;SDS011;4281;45.772;12.852;2022-12-20T01:39:36;18.20;;;15.33;;
8488;SDS011;4281;45.772;12.852;2022-12-20T01:42:04;18.47;;;15.83;;
8488;SDS011;4281;45.772;12.852;2022-12-20T01:44:53;22.77;;;18.60;;
8488;SDS011;4281;45.772;12.852;2022-12-20T01:47:23;23.53;;;18.47;;
8488;SDS011;4281;45.772;12.852;2022-12-20T01:49:52;20.87;;;17.43;;
8488;SDS011;4281;45.772;12.852;2022-12-20T01:52:22;22.23;;;16.47;;
8488;SDS011;4281;45.772;12.852;2022-12-20T01:54:53;22.37;;;17.07;;
8488;SDS011;4281;45.772;12.852;2022-12-20T01:57:24;21.77;;;16.57;;
8488;SDS011;4281;45.772;12.852;2022-12-20T01:59:55;19.97;;;16.93;;
8488;SDS011;4281;45.772;12.852;2022-12-20T02:02:23;17.90;;;14.87;;
8488;SDS011;4281;45.772;12.852;2022-12-20T02:04:52;19.53;;;14.90;;
8488;SDS011;4281;45.772;12.852;2022-12-20T02:07:20;17.10;;;14.47;;
8488;SDS011;4281;45.772;12.852;2022-12-20T02:09:51;18.30;;;15.23;;
8488;SDS011;4281;45.772;12.852;2022-12-20T02:12:19;17.23;;;14.97;;
8488;SDS011;4281;45.772;12.852;2022-12-20T02:14:52;16.17;;;13.43;;
8488;SDS011;4281;45.772;12.852;2022-12-20T02:17:30;16.70;;;13.40;;
8488;SDS011;4281;45.772;12.852;2022-12-20T02:23:22;14.80;;;12.33;;
8488;SDS011;4281;45.772;12.852;2022-12-20T02:26:05;14.90;;;12.30;;
8488;SDS011;4281;45.772;12.852;2022-12-20T02:28:49;14.77;;;12.03;;
8488;SDS011;4281;45.772;12.852;2022-12-20T02:31:29;16.27;;;12.97;;
8488;SDS011;4281;45.772;12.852;2022-12-20T02:34:00;16.03;;;12.03;;
8488;SDS011;4281;45.772;12.852;2022-12-20T02:36:28;15.27;;;12.57;;
8488;SDS011;4281;45.772;12.852;2022-12-20T02:38:56;16.10;;;12.53;;
8488;SDS011;4281;45.772;12.852;2022-12-20T02:41:24;14.50;;;12.50;;
8488;SDS011;4281;45.772;12.852;2022-12-20T02:43:56;15.17;;;12.77;;
8488;SDS011;4281;45.772;12.852;2022-12-20T02:46:46;17.63;;;13.27;;
8488;SDS011;4281;45.772;12.852;2022-12-20T02:49:17;15.17;;;12.23;;
8488;SDS011;4281;45.772;12.852;2022-12-20T02:51:47;16.07;;;12.97;;
8488;SDS011;4281;45.772;12.852;2022-12-20T02:54:17;15.57;;;12.30;;
8488;SDS011;4281;45.772;12.852;2022-12-20T02:56:47;15.40;;;12.90;;
8488;SDS011;4281;45.772;12.852;2022-12-20T02:59:19;15.97;;;11.60;;
8488;SDS011;4281;45.772;12.852;2022-12-20T03:01:51;13.43;;;11.40;;
8488;SDS011;4281;45.772;12.852;2022-12-20T03:04:22;12.97;;;11.23;;
8488;SDS011;4281;45.772;12.852;2022-12-20T03:06:55;13.57;;;11.20;;
8488;SDS011;4281;45.772;12.852;2022-12-20T03:09:24;12.70;;;10.30;;
8488;SDS011;4281;45.772;12.852;2022-12-20T03:11:54;13.97;;;10.70;;
8488;SDS011;4281;45.772;12.852;2022-12-20T03:14:22;14.27;;;10.90;;
8488;SDS011;4281;45.772;12.852;2022-12-20T03:16:53;11.80;;;9.67;;
8488;SDS011;4281;45.772;12.852;2022-12-20T03:19:21;13.27;;;11.10;;
8488;SDS011;4281;45.772;12.852;2022-12-20T03:21:49;12.27;;;10.47;;
8488;SDS011;4281;45.772;12.852;2022-12-20T03:24:18;11.57;;;10.00;;
8488;SDS011;4281;45.772;12.852;2022-12-20T03:26:46;11.30;;;9.07;;
8488;SDS011;4281;45.772;12.852;2022-12-20T03:29:14;11.17;;;9.93;;
8488;SDS011;4281;45.772;12.852;2022-12-20T03:31:42;10.20;;;8.83;;
8488;SDS011;4281;45.772;12.852;2022-12-20T03:34:12;11.00;;;9.13;;
8488;SDS011;4281;45.772;12.852;2022-12-20T03:36:40;12.30;;;9.63;;
8488;SDS011;4281;45.772;12.852;2022-12-20T03:39:08;12.30;;;9.77;;
8488;SDS011;4281;45.772;12.852;2022-12-20T03:41:36;10.67;;;9.57;;
8488;SDS011;4281;45.772;12.852;2022-12-20T03:44:04;12.13;;;9.47;;
8488;SDS011;4281;45.772;12.852;2022-12-20T03:46:32;10.60;;;9.00;;
8488;SDS011;4281;45.772;12.852;2022-12-20T03:49:00;11.80;;;9.43;;
8488;SDS011;4281;45.772;12.852;2022-12-20T03:51:30;10.77;;;9.13;;
8488;SDS011;4281;45.772;12.852;2022-12-20T03:53:59;10.20;;;8.53;;
8488;SDS011;4281;45.772;12.852;2022-12-20T03:56:27;10.00;;;8.70;;
8488;SDS011;4281;45.772;12.852;2022-12-20T03:58:54;10.40;;;9.23;;
8488;SDS011;4281;45.772;12.852;2022-12-20T04:01:23;10.43;;;8.73;;
8488;SDS011;4281;45.772;12.852;2022-12-20T04:03:52;9.70;;;8.67;;
8488;SDS011;4281;45.772;12.852;2022-12-20T04:06:21;9.57;;;8.10;;
8488;SDS011;4281;45.772;12.852;2022-12-20T04:08:52;9.03;;;7.67;;
8488;SDS011;4281;45.772;12.852;2022-12-20T04:11:20;9.63;;;8.63;;
8488;SDS011;4281;45.772;12.852;2022-12-20T04:13:49;10.53;;;8.70;;
8488;SDS011;4281;45.772;12.852;2022-12-20T04:16:19;10.97;;;8.40;;
8488;SDS011;4281;45.772;12.852;2022-12-20T04:18:50;8.77;;;7.60;;
8488;SDS011;4281;45.772;12.852;2022-12-20T04:21:20;8.90;;;7.80;;
8488;SDS011;4281;45.772;12.852;2022-12-20T04:23:49;9.80;;;8.33;;
8488;SDS011;4281;45.772;12.852;2022-12-20T04:26:19;9.10;;;8.00;;
8488;SDS011;4281;45.772;12.852;2022-12-20T04:28:48;8.43;;;7.13;;
8488;SDS011;4281;45.772;12.852;2022-12-20T04:31:15;9.43;;;8.43;;
8488;SDS011;4281;45.772;12.852;2022-12-20T04:33:49;9.40;;;8.40;;
8488;SDS011;4281;45.772;12.852;2022-12-20T04:36:17;9.10;;;7.70;;
8488;SDS011;4281;45.772;12.852;2022-12-20T04:38:45;9.93;;;8.40;;
8488;SDS011;4281;45.772;12.852;2022-12-20T04:41:13;9.27;;;7.97;;
8488;SDS011;4281;45.772;12.852;2022-12-20T04:43:50;8.90;;;7.77;;
8488;SDS011;4281;45.772;12.852;2022-12-20T04:46:18;8.97;;;7.40;;
8488;SDS011;4281;45.772;12.852;2022-12-20T04:48:46;9.93;;;7.37;;
8488;SDS011;4281;45.772;12.852;2022-12-20T04:51:24;8.80;;;7.87;;
8488;SDS011;4281;45.772;12.852;2022-12-20T04:53:52;8.70;;;7.40;;
8488;SDS011;4281;45.772;12.852;2022-12-20T04:56:20;10.20;;;7.87;;
8488;SDS011;4281;45.772;12.852;2022-12-20T04:58:51;8.70;;;7.40;;
8488;SDS011;4281;45.772;12.852;2022-12-20T05:01:19;7.77;;;6.97;;
8488;SDS011;4281;45.772;12.852;2022-12-20T05:03:47;9.23;;;7.53;;
8488;SDS011;4281;45.772;12.852;2022-12-20T05:06:15;8.63;;;7.57;;
8488;SDS011;4281;45.772;12.852;2022-12-20T05:08:43;8.67;;;7.70;;
8488;SDS011;4281;45.772;12.852;2022-12-20T05:11:11;8.77;;;7.40;;
8488;SDS011;4281;45.772;12.852;2022-12-20T05:13:39;9.70;;;8.00;;
8488;SDS011;4281;45.772;12.852;2022-12-20T05:16:08;9.50;;;8.27;;
8488;SDS011;4281;45.772;12.852;2022-12-20T05:18:36;10.03;;;8.40;;
8488;SDS011;4281;45.772;12.852;2022-12-20T05:21:13;8.17;;;7.30;;
8488;SDS011;4281;45.772;12.852;2022-12-20T05:23:58;8.23;;;7.33;;
8488;SDS011;4281;45.772;12.852;2022-12-20T05:26:44;10.10;;;7.87;;
8488;SDS011;4281;45.772;12.852;2022-12-20T05:29:11;9.90;;;7.23;;
8488;SDS011;4281;45.772;12.852;2022-12-20T05:31:40;9.07;;;8.17;;
8488;SDS011;4281;45.772;12.852;2022-12-20T05:34:08;9.10;;;7.43;;
8488;SDS011;4281;45.772;12.852;2022-12-20T05:36:36;9.87;;;7.70;;
8488;SDS011;4281;45.772;12.852;2022-12-20T05:39:04;9.13;;;7.73;;
8488;SDS011;4281;45.772;12.852;2022-12-20T05:41:32;11.43;;;9.03;;
8488;SDS011;4281;45.772;12.852;2022-12-20T05:44:00;12.90;;;9.27;;
8488;SDS011;4281;45.772;12.852;2022-12-20T05:46:27;11.40;;;10.20;;
8488;SDS011;4281;45.772;12.852;2022-12-20T05:48:56;12.17;;;10.97;;
8488;SDS011;4281;45.772;12.852;2022-12-20T05:51:24;10.50;;;9.40;;
8488;SDS011;4281;45.772;12.852;2022-12-20T05:53:52;11.17;;;9.63;;
8488;SDS011;4281;45.772;12.852;2022-12-20T05:56:20;10.00;;;8.40;;
8488;SDS011;4281;45.772;12.852;2022-12-20T05:58:47;10.20;;;8.80;;
8488;SDS011;4281;45.772;12.852;2022-12-20T06:01:15;10.07;;;8.33;;
8488;SDS011;4281;45.772;12.852;2022-12-20T06:03:43;9.77;;;8.37;;
8488;SDS011;4281;45.772;12.852;2022-12-20T06:06:13;9.53;;;7.83;;
8488;SDS011;4281;45.772;12.852;2022-12-20T06:08:41;9.57;;;7.63;;
8488;SDS011;4281;45.772;12.852;2022-12-20T06:11:08;9.23;;;7.33;;
8488;SDS011;4281;45.772;12.852;2022-12-20T06:13:36;9.13;;;7.47;;
8488;SDS011;4281;45.772;12.852;2022-12-20T06:16:04;10.23;;;7.10;;
8488;SDS011;4281;45.772;12.852;2022-12-20T06:18:32;8.30;;;7.03;;
8488;SDS011;4281;45.772;12.852;2022-12-20T06:21:00;10.70;;;7.30;;
8488;SDS011;4281;45.772;12.852;2022-12-20T06:23:29;10.17;;;7.33;;
8488;SDS011;4281;45.772;12.852;2022-12-20T06:25:57;9.27;;;7.63;;
8488;SDS011;4281;45.772;12.852;2022-12-20T06:28:29;9.73;;;8.17;;
8488;SDS011;4281;45.772;12.852;2022-12-20T06:30:57;12.33;;;9.03;;
8488;SDS011;4281;45.772;12.852;2022-12-20T06:33:25;10.10;;;8.37;;
8488;SDS011;4281;45.772;12.852;2022-12-20T06:35:52;10.47;;;8.63;;
8488;SDS011;4281;45.772;12.852;2022-12-20T06:38:20;11.53;;;8.00;;
8488;SDS011;4281;45.772;12.852;2022-12-20T06:40:49;9.67;;;7.57;;
8488;SDS011;4281;45.772;12.852;2022-12-20T06:43:17;11.27;;;8.13;;
8488;SDS011;4281;45.772;12.852;2022-12-20T06:45:45;10.07;;;7.90;;
8488;SDS011;4281;45.772;12.852;2022-12-20T06:48:13;10.07;;;7.97;;
8488;SDS011;4281;45.772;12.852;2022-12-20T06:50:40;7.67;;;6.67;;
8488;SDS011;4281;45.772;12.852;2022-12-20T06:53:08;7.80;;;6.83;;
8488;SDS011;4281;45.772;12.852;2022-12-20T06:55:37;9.27;;;7.27;;
8488;SDS011;4281;45.772;12.852;2022-12-20T06:58:07;8.73;;;6.93;;
8488;SDS011;4281;45.772;12.852;2022-12-20T07:00:34;10.37;;;8.10;;
8488;SDS011;4281;45.772;12.852;2022-12-20T07:03:02;9.50;;;7.43;;
8488;SDS011;4281;45.772;12.852;2022-12-20T07:05:30;8.77;;;7.23;;
8488;SDS011;4281;45.772;12.852;2022-12-20T07:07:58;8.83;;;7.27;;
8488;SDS011;4281;45.772;12.852;2022-12-20T07:10:28;9.87;;;7.67;;
8488;SDS011;4281;45.772;12.852;2022-12-20T07:12:55;9.97;;;8.43;;
8488;SDS011;4281;45.772;12.852;2022-12-20T07:15:24;10.20;;;7.53;;
8488;SDS011;4281;45.772;12.852;2022-12-20T07:17:52;8.10;;;6.70;;
8488;SDS011;4281;45.772;12.852;2022-12-20T07:20:20;7.63;;;6.50;;
8488;SDS011;4281;45.772;12.852;2022-12-20T07:22:48;9.90;;;7.27;;
8488;SDS011;4281;45.772;12.852;2022-12-20T07:25:16;8.47;;;6.77;;
8488;SDS011;4281;45.772;12.852;2022-12-20T07:27:45;8.30;;;6.80;;
8488;SDS011;4281;45.772;12.852;2022-12-20T07:30:13;9.83;;;7.43;;
8488;SDS011;4281;45.772;12.852;2022-12-20T07:32:42;7.63;;;6.83;;
8488;SDS011;4281;45.772;12.852;2022-12-20T07:35:10;8.40;;;6.97;;
8488;SDS011;4281;45.772;12.852;2022-12-20T07:37:38;8.77;;;6.83;;
8488;SDS011;4281;45.772;12.852;2022-12-20T07:40:06;8.20;;;6.53;;
8488;SDS011;4281;45.772;12.852;2022-12-20T07:42:35;9.40;;;7.57;;
8488;SDS011;4281;45.772;12.852;2022-12-20T07:45:13;8.70;;;7.30;;
8488;SDS011;4281;45.772;12.852;2022-12-20T07:47:42;10.00;;;7.90;;
8488;SDS011;4281;45.772;12.852;2022-12-20T07:50:10;8.23;;;7.10;;
8488;SDS011;4281;45.772;12.852;2022-12-20T07:52:38;8.23;;;7.20;;
8488;SDS011;4281;45.772;12.852;2022-12-20T07:55:06;8.17;;;6.67;;
8488;SDS011;4281;45.772;12.852;2022-12-20T07:57:36;7.60;;;6.57;;
8488;SDS011;4281;45.772;12.852;2022-12-20T08:00:07;8.40;;;7.20;;
8488;SDS011;4281;45.772;12.852;2022-12-20T08:02:36;9.67;;;7.50;;
8488;SDS011;4281;45.772;12.852;2022-12-20T08:05:07;9.07;;;7.60;;
8488;SDS011;4281;45.772;12.852;2022-12-20T08:07:36;8.10;;;6.80;;
8488;SDS011;4281;45.772;12.852;2022-12-20T08:10:06;7.80;;;6.33;;
8488;SDS011;4281;45.772;12.852;2022-12-20T08:12:36;8.63;;;6.57;;
8488;SDS011;4281;45.772;12.852;2022-12-20T08:15:04;9.10;;;7.30;;
8488;SDS011;4281;45.772;12.852;2022-12-20T08:17:33;9.10;;;7.97;;
8488;SDS011;4281;45.772;12.852;2022-12-20T08:20:01;11.07;;;8.13;;
8488;SDS011;4281;45.772;12.852;2022-12-20T08:22:32;9.73;;;8.20;;
8488;SDS011;4281;45.772;12.852;2022-12-20T08:25:00;9.97;;;8.07;;
8488;SDS011;4281;45.772;12.852;2022-12-20T08:27:27;9.23;;;7.63;;
8488;SDS011;4281;45.772;12.852;2022-12-20T08:29:55;9.70;;;8.03;;
8488;SDS011;4281;45.772;12.852;2022-12-20T08:32:23;8.17;;;6.67;;
8488;SDS011;4281;45.772;12.852;2022-12-20T08:34:51;9.30;;;8.13;;
8488;SDS011;4281;45.772;12.852;2022-12-20T08:37:18;10.60;;;8.30;;
8488;SDS011;4281;45.772;12.852;2022-12-20T08:39:47;10.13;;;8.13;;
8488;SDS011;4281;45.772;12.852;2022-12-20T08:42:15;10.27;;;7.80;;
8488;SDS011;4281;45.772;12.852;2022-12-20T08:44:43;10.30;;;8.07;;
8488;SDS011;4281;45.772;12.852;2022-12-20T08:47:11;9.70;;;7.73;;
8488;SDS011;4281;45.772;12.852;2022-12-20T08:49:38;10.87;;;8.37;;
8488;SDS011;4281;45.772;12.852;2022-12-20T08:52:13;10.40;;;8.07;;
8488;SDS011;4281;45.772;12.852;2022-12-20T08:54:40;9.60;;;8.20;;
8488;SDS011;4281;45.772;12.852;2022-12-20T08:57:10;9.97;;;8.13;;
8488;SDS011;4281;45.772;12.852;2022-12-20T08:59:38;10.00;;;7.60;;
8488;SDS011;4281;45.772;12.852;2022-12-20T09:02:05;9.17;;;7.67;;
8488;SDS011;4281;45.772;12.852;2022-12-20T09:04:34;8.83;;;7.83;;
8488;SDS011;4281;45.772;12.852;2022-12-20T09:09:46;9.70;;;7.93;;
8488;SDS011;4281;45.772;12.852;2022-12-20T09:12:15;8.37;;;7.47;;
8488;SDS011;4281;45.772;12.852;2022-12-20T09:14:43;11.33;;;8.43;;
8488;SDS011;4281;45.772;12.852;2022-12-20T09:17:11;10.40;;;8.67;;
8488;SDS011;4281;45.772;12.852;2022-12-20T09:19:39;10.80;;;8.47;;
8488;SDS011;4281;45.772;12.852;2022-12-20T09:22:06;9.90;;;8.37;;
8488;SDS011;4281;45.772;12.852;2022-12-20T09:24:36;10.80;;;8.90;;
8488;SDS011;4281;45.772;12.852;2022-12-20T09:27:03;11.00;;;9.47;;
8488;SDS011;4281;45.772;12.852;2022-12-20T09:29:33;12.00;;;8.53;;
8488;SDS011;4281;45.772;12.852;2022-12-20T09:32:01;10.43;;;8.60;;
8488;SDS011;4281;45.772;12.852;2022-12-20T09:34:29;10.70;;;9.10;;
8488;SDS011;4281;45.772;12.852;2022-12-20T09:36:56;10.20;;;9.00;;
8488;SDS011;4281;45.772;12.852;2022-12-20T09:39:24;10.93;;;8.50;;
8488;SDS011;4281;45.772;12.852;2022-12-20T09:41:52;10.33;;;8.57;;
8488;SDS011;4281;45.772;12.852;2022-12-20T09:44:23;10.10;;;8.80;;
8488;SDS011;4281;45.772;12.852;2022-12-20T09:46:53;11.23;;;9.33;;
8488;SDS011;4281;45.772;12.852;2022-12-20T09:49:24;11.70;;;9.27;;
8488;SDS011;4281;45.772;12.852;2022-12-20T09:52:01;10.90;;;8.67;;
8488;SDS011;4281;45.772;12.852;2022-12-20T09:54:37;9.27;;;8.33;;
8488;SDS011;4281;45.772;12.852;2022-12-20T09:57:11;11.70;;;9.27;;
8488;SDS011;4281;45.772;12.852;2022-12-20T09:59:43;11.37;;;9.07;;
8488;SDS011;4281;45.772;12.852;2022-12-20T10:02:19;10.97;;;9.60;;
8488;SDS011;4281;45.772;12.852;2022-12-20T10:05:10;13.87;;;9.83;;
8488;SDS011;4281;45.772;12.852;2022-12-20T10:07:40;10.77;;;8.53;;
8488;SDS011;4281;45.772;12.852;2022-12-20T10:10:18;11.53;;;8.73;;
8488;SDS011;4281;45.772;12.852;2022-12-20T10:12:57;10.37;;;8.37;;
8488;SDS011;4281;45.772;12.852;2022-12-20T10:15:29;11.83;;;9.53;;
8488;SDS011;4281;45.772;12.852;2022-12-20T10:18:08;11.47;;;9.37;;
8488;SDS011;4281;45.772;12.852;2022-12-20T10:20:50;10.80;;;8.90;;
8488;SDS011;4281;45.772;12.852;2022-12-20T10:23:24;11.40;;;9.60;;
8488;SDS011;4281;45.772;12.852;2022-12-20T10:25:59;11.63;;;9.70;;
8488;SDS011;4281;45.772;12.852;2022-12-20T10:28:28;11.03;;;9.43;;
8488;SDS011;4281;45.772;12.852;2022-12-20T10:30:57;10.57;;;8.47;;
8488;SDS011;4281;45.772;12.852;2022-12-20T10:33:29;10.10;;;8.90;;
8488;SDS011;4281;45.772;12.852;2022-12-20T10:38:48;9.97;;;8.60;;
8488;SDS011;4281;45.772;12.852;2022-12-20T10:41:17;11.07;;;9.07;;
8488;SDS011;4281;45.772;12.852;2022-12-20T10:43:50;10.20;;;8.47;;
8488;SDS011;4281;45.772;12.852;2022-12-20T10:46:21;12.00;;;9.43;;
8488;SDS011;4281;45.772;12.852;2022-12-20T10:48:50;12.00;;;10.73;;
8488;SDS011;4281;45.772;12.852;2022-12-20T10:51:19;12.77;;;10.60;;
8488;SDS011;4281;45.772;12.852;2022-12-20T10:53:49;12.27;;;10.27;;
8488;SDS011;4281;45.772;12.852;2022-12-20T10:56:19;12.40;;;11.10;;
8488;SDS011;4281;45.772;12.852;2022-12-20T10:58:53;13.47;;;10.93;;
8488;SDS011;4281;45.772;12.852;2022-12-20T11:01:23;14.87;;;10.83;;
8488;SDS011;4281;45.772;12.852;2022-12-20T11:03:56;12.13;;;10.50;;
8488;SDS011;4281;45.772;12.852;2022-12-20T11:06:27;10.80;;;9.70;;
8488;SDS011;4281;45.772;12.852;2022-12-20T11:09:20;13.43;;;10.53;;
8488;SDS011;4281;45.772;12.852;2022-12-20T11:11:57;13.20;;;10.63;;
8488;SDS011;4281;45.772;12.852;2022-12-20T11:14:31;13.20;;;10.90;;
8488;SDS011;4281;45.772;12.852;2022-12-20T11:17:05;12.20;;;9.83;;
8488;SDS011;4281;45.772;12.852;2022-12-20T11:22:44;10.40;;;9.27;;
8488;SDS011;4281;45.772;12.852;2022-12-20T11:25:20;11.33;;;10.13;;
8488;SDS011;4281;45.772;12.852;2022-12-20T11:27:59;12.23;;;10.50;;
8488;SDS011;4281;45.772;12.852;2022-12-20T11:30:38;11.93;;;10.53;;
8488;SDS011;4281;45.772;12.852;2022-12-20T11:33:13;13.40;;;10.97;;
8488;SDS011;4281;45.772;12.852;2022-12-20T11:35:51;12.27;;;10.07;;
8488;SDS011;4281;45.772;12.852;2022-12-20T11:38:26;11.97;;;10.60;;
8488;SDS011;4281;45.772;12.852;2022-12-20T11:41:06;12.93;;;10.47;;
8488;SDS011;4281;45.772;12.852;2022-12-20T11:43:41;12.47;;;10.77;;
8488;SDS011;4281;45.772;12.852;2022-12-20T11:46:40;14.10;;;11.33;;
8488;SDS011;4281;45.772;12.852;2022-12-20T11:49:21;12.57;;;10.07;;
8488;SDS011;4281;45.772;12.852;2022-12-20T11:52:00;13.57;;;11.30;;
8488;SDS011;4281;45.772;12.852;2022-12-20T11:54:35;13.40;;;11.57;;
8488;SDS011;4281;45.772;12.852;2022-12-20T11:57:10;13.10;;;11.00;;
8488;SDS011;4281;45.772;12.852;2022-12-20T11:59:44;15.63;;;12.13;;
8488;SDS011;4281;45.772;12.852;2022-12-20T12:02:15;13.87;;;11.47;;
8488;SDS011;4281;45.772;12.852;2022-12-20T12:04:55;14.27;;;11.57;;
8488;SDS011;4281;45.772;12.852;2022-12-20T12:07:29;13.63;;;11.67;;
8488;SDS011;4281;45.772;12.852;2022-12-20T12:09:58;13.00;;;10.93;;
8488;SDS011;4281;45.772;12.852;2022-12-20T12:12:28;13.50;;;11.73;;
8488;SDS011;4281;45.772;12.852;2022-12-20T12:15:00;15.10;;;11.97;;
8488;SDS011;4281;45.772;12.852;2022-12-20T12:17:31;13.70;;;12.00;;
8488;SDS011;4281;45.772;12.852;2022-12-20T12:20:17;15.80;;;11.47;;
8488;SDS011;4281;45.772;12.852;2022-12-20T12:22:52;13.17;;;10.63;;
8488;SDS011;4281;45.772;12.852;2022-12-20T12:25:37;12.40;;;10.27;;
8488;SDS011;4281;45.772;12.852;2022-12-20T12:28:08;13.17;;;10.83;;
8488;SDS011;4281;45.772;12.852;2022-12-20T12:30:38;13.30;;;11.27;;
8488;SDS011;4281;45.772;12.852;2022-12-20T12:33:10;13.10;;;11.00;;
8488;SDS011;4281;45.772;12.852;2022-12-20T12:35:54;12.23;;;10.37;;
8488;SDS011;4281;45.772;12.852;2022-12-20T12:38:35;14.90;;;11.80;;
8488;SDS011;4281;45.772;12.852;2022-12-20T12:41:33;14.47;;;11.73;;
8488;SDS011;4281;45.772;12.852;2022-12-20T12:44:39;13.20;;;11.13;;
8488;SDS011;4281;45.772;12.852;2022-12-20T12:47:11;13.17;;;11.00;;
8488;SDS011;4281;45.772;12.852;2022-12-20T12:49:41;13.43;;;12.00;;
8488;SDS011;4281;45.772;12.852;2022-12-20T12:52:23;13.53;;;11.77;;
8488;SDS011;4281;45.772;12.852;2022-12-20T12:55:02;13.03;;;10.80;;
8488;SDS011;4281;45.772;12.852;2022-12-20T12:57:30;13.90;;;10.47;;
8488;SDS011;4281;45.772;12.852;2022-12-20T13:03:33;13.53;;;11.53;;
8488;SDS011;4281;45.772;12.852;2022-12-20T13:09:36;14.30;;;11.53;;
8488;SDS011;4281;45.772;12.852;2022-12-20T13:18:20;14.80;;;11.87;;
8488;SDS011;4281;45.772;12.852;2022-12-20T13:23:44;13.27;;;11.57;;
8488;SDS011;4281;45.772;12.852;2022-12-20T13:26:41;14.57;;;12.33;;
8488;SDS011;4281;45.772;12.852;2022-12-20T13:29:21;15.90;;;12.70;;
8488;SDS011;4281;45.772;12.852;2022-12-20T13:31:51;14.37;;;12.37;;
8488;SDS011;4281;45.772;12.852;2022-12-20T13:36:57;14.27;;;12.03;;
8488;SDS011;4281;45.772;12.852;2022-12-20T13:39:30;14.50;;;12.70;;
8488;SDS011;4281;45.772;12.852;2022-12-20T13:42:13;15.13;;;13.00;;
8488;SDS011;4281;45.772;12.852;2022-12-20T13:44:47;15.10;;;13.23;;
8488;SDS011;4281;45.772;12.852;2022-12-20T13:47:25;15.40;;;13.43;;
8488;SDS011;4281;45.772;12.852;2022-12-20T13:49:58;15.17;;;13.30;;
8488;SDS011;4281;45.772;12.852;2022-12-20T13:52:28;15.40;;;13.50;;
8488;SDS011;4281;45.772;12.852;2022-12-20T13:54:58;14.67;;;13.07;;
8488;SDS011;4281;45.772;12.852;2022-12-20T13:57:28;16.03;;;13.57;;
8488;SDS011;4281;45.772;12.852;2022-12-20T13:59:59;16.10;;;13.90;;
8488;SDS011;4281;45.772;12.852;2022-12-20T14:02:35;17.13;;;13.93;;
8488;SDS011;4281;45.772;12.852;2022-12-20T14:05:12;15.97;;;13.90;;
8488;SDS011;4281;45.772;12.852;2022-12-20T14:07:44;16.87;;;14.40;;
8488;SDS011;4281;45.772;12.852;2022-12-20T14:10:17;17.60;;;13.97;;
8488;SDS011;4281;45.772;12.852;2022-12-20T14:12:48;16.70;;;14.90;;
8488;SDS011;4281;45.772;12.852;2022-12-20T14:15:20;16.50;;;13.90;;
8488;SDS011;4281;45.772;12.852;2022-12-20T14:17:54;16.43;;;13.37;;
8488;SDS011;4281;45.772;12.852;2022-12-20T14:20:23;16.83;;;14.17;;
8488;SDS011;4281;45.772;12.852;2022-12-20T14:22:54;17.40;;;14.67;;
8488;SDS011;4281;45.772;12.852;2022-12-20T14:25:33;18.03;;;15.30;;
8488;SDS011;4281;45.772;12.852;2022-12-20T14:28:03;17.60;;;14.27;;
8488;SDS011;4281;45.772;12.852;2022-12-20T14:30:33;17.63;;;14.83;;
8488;SDS011;4281;45.772;12.852;2022-12-20T14:33:04;20.33;;;15.93;;
8488;SDS011;4281;45.772;12.852;2022-12-20T14:35:32;16.27;;;14.40;;
8488;SDS011;4281;45.772;12.852;2022-12-20T14:38:00;18.43;;;15.20;;
8488;SDS011;4281;45.772;12.852;2022-12-20T14:40:29;16.63;;;14.83;;
8488;SDS011;4281;45.772;12.852;2022-12-20T14:42:57;16.90;;;14.53;;
8488;SDS011;4281;45.772;12.852;2022-12-20T14:45:26;17.00;;;14.03;;
8488;SDS011;4281;45.772;12.852;2022-12-20T14:47:55;17.27;;;14.87;;
8488;SDS011;4281;45.772;12.852;2022-12-20T14:50:28;18.97;;;13.90;;
8488;SDS011;4281;45.772;12.852;2022-12-20T14:52:57;17.20;;;15.10;;
8488;SDS011;4281;45.772;12.852;2022-12-20T14:55:28;16.67;;;14.00;;
8488;SDS011;4281;45.772;12.852;2022-12-20T14:57:58;15.33;;;13.33;;
8488;SDS011;4281;45.772;12.852;2022-12-20T15:00:27;16.90;;;14.17;;
8488;SDS011;4281;45.772;12.852;2022-12-20T15:02:58;17.47;;;13.90;;
8488;SDS011;4281;45.772;12.852;2022-12-20T15:05:41;16.87;;;14.40;;
8488;SDS011;4281;45.772;12.852;2022-12-20T15:08:20;15.50;;;13.90;;
8488;SDS011;4281;45.772;12.852;2022-12-20T15:10:50;15.57;;;13.53;;
8488;SDS011;4281;45.772;12.852;2022-12-20T16:15:23;40.47;;;35.33;;
8488;SDS011;4281;45.772;12.852;2022-12-20T16:17:51;38.43;;;32.17;;
8488;SDS011;4281;45.772;12.852;2022-12-20T16:20:19;34.93;;;28.83;;
8488;SDS011;4281;45.772;12.852;2022-12-20T16:22:46;31.73;;;27.57;;
8488;SDS011;4281;45.772;12.852;2022-12-20T16:25:21;31.90;;;26.37;;
8488;SDS011;4281;45.772;12.852;2022-12-20T16:27:52;26.70;;;22.67;;
8488;SDS011;4281;45.772;12.852;2022-12-20T16:30:20;24.93;;;22.23;;
8488;SDS011;4281;45.772;12.852;2022-12-20T16:32:50;26.20;;;21.40;;
8488;SDS011;4281;45.772;12.852;2022-12-20T16:35:22;25.50;;;21.27;;
8488;SDS011;4281;45.772;12.852;2022-12-20T16:37:52;23.80;;;20.37;;